Time;durP1;ratioP1;P1;durP2;ratioP2;P2;SDS_P1;SDS_P2;PMS_P1;PMS_P2;Temp;Humidity;BMP_temperature;BMP_pressure;BME280_temperature;BME280_humidity;BME280_pressure;Samples;Min_cycle;Max_cycle;Signal;HPM_P1;HPM_P2
2022/07/30 00:00:51;;;;;;;179.77;163.88;;;19.30;72.80;;;;;;5068599;28;20140;-78
2022/07/30 00:03:18;;;;;;;203.48;185.48;;;19.30;72.80;;;;;;5050690;28;20076;-78
2022/07/30 00:05:45;;;;;;;184.50;168.10;;;19.20;73.00;;;;;;5058359;28;20046;-78
2022/07/30 00:08:12;;;;;;;173.57;157.88;;;19.20;73.60;;;;;;5064425;28;20085;-78
2022/07/30 00:10:41;;;;;;;175.32;159.93;;;19.10;73.60;;;;;;5067676;28;20542;-78
2022/07/30 00:13:08;;;;;;;168.27;152.95;;;19.10;73.40;;;;;;5058257;28;20067;-78
2022/07/30 00:15:35;;;;;;;185.52;168.75;;;19.00;73.20;;;;;;5061894;28;20556;-78
2022/07/30 00:18:02;;;;;;;166.13;151.13;;;19.00;72.90;;;;;;5068688;28;20063;-78
2022/07/30 00:20:29;;;;;;;175.60;159.77;;;19.00;72.90;;;;;;5061104;28;20533;-78
2022/07/30 00:22:56;;;;;;;208.85;190.20;;;18.90;72.80;;;;;;5064982;28;20077;-78
2022/07/30 00:25:23;;;;;;;176.27;160.25;;;18.90;73.10;;;;;;5063153;28;20046;-78
2022/07/30 00:27:51;;;;;;;206.85;188.05;;;18.90;73.00;;;;;;5055247;28;20057;-78
2022/07/30 00:30:18;;;;;;;206.82;188.18;;;18.90;73.10;;;;;;5060307;28;20123;-78
2022/07/30 00:32:45;;;;;;;193.95;176.20;;;18.80;73.40;;;;;;5048736;28;20139;-77
2022/07/30 00:35:13;;;;;;;200.40;182.20;;;18.80;72.70;;;;;;5083082;28;20052;-78
2022/07/30 00:37:40;;;;;;;186.95;170.05;;;18.70;72.70;;;;;;5055515;28;20088;-78
2022/07/30 00:40:08;;;;;;;176.00;159.98;;;18.70;73.10;;;;;;5042566;28;20144;-78
2022/07/30 00:42:41;;;;;;;163.50;148.60;;;18.60;73.60;;;;;;5037902;28;20069;-78
2022/07/30 00:45:11;;;;;;;160.23;145.43;;;18.60;74.00;;;;;;5043231;28;20057;-77
2022/07/30 00:47:41;;;;;;;158.38;143.65;;;18.50;73.70;;;;;;5066698;28;20048;-78
2022/07/30 00:50:10;;;;;;;156.23;142.00;;;18.50;74.00;;;;;;5061166;28;20057;-78
2022/07/30 00:52:38;;;;;;;164.13;148.93;;;18.50;74.50;;;;;;5053856;28;20514;-77
2022/07/30 00:55:06;;;;;;;150.77;137.07;;;18.40;74.80;;;;;;5054635;28;20049;-78
2022/07/30 00:57:33;;;;;;;151.55;137.77;;;18.40;74.90;;;;;;5064618;28;20504;-78
2022/07/30 01:00:00;;;;;;;152.32;138.43;;;18.30;74.80;;;;;;5057994;28;20053;-77
2022/07/30 01:02:28;;;;;;;156.27;141.93;;;18.30;75.30;;;;;;5076890;28;20459;-77
2022/07/30 01:04:55;;;;;;;153.85;139.85;;;18.30;75.50;;;;;;5046193;28;20046;-78
2022/07/30 01:07:22;;;;;;;157.85;143.35;;;18.20;75.50;;;;;;5045113;28;20052;-77
2022/07/30 01:09:49;;;;;;;157.55;142.95;;;18.20;75.80;;;;;;5039929;28;20055;-78
2022/07/30 01:12:20;;;;;;;159.90;144.90;;;18.10;76.00;;;;;;5055874;28;20049;-78
2022/07/30 01:14:48;;;;;;;153.68;139.57;;;18.00;76.20;;;;;;5058102;28;20567;-77
2022/07/30 01:17:15;;;;;;;159.60;144.68;;;18.00;76.80;;;;;;5062436;28;20469;-78
2022/07/30 01:19:47;;;;;;;158.57;143.75;;;18.00;76.40;;;;;;5044120;28;20500;-78
2022/07/30 01:22:24;;;;;;;157.30;142.63;;;17.90;76.30;;;;;;5071330;28;20139;-78
2022/07/30 01:24:58;;;;;;;153.38;139.35;;;17.90;76.60;;;;;;5045661;28;20046;-78
2022/07/30 01:27:29;;;;;;;153.73;139.52;;;17.90;76.90;;;;;;5062967;28;20115;-78
2022/07/30 01:29:59;;;;;;;155.15;140.77;;;17.80;76.90;;;;;;5038085;28;20049;-78
2022/07/30 01:32:26;;;;;;;156.60;142.40;;;17.80;77.20;;;;;;5057620;28;20460;-78
2022/07/30 01:34:57;;;;;;;159.88;145.48;;;17.80;77.60;;;;;;5042298;28;20038;-77
2022/07/30 01:37:25;;;;;;;162.13;147.50;;;17.70;77.40;;;;;;5049205;28;20057;-77
2022/07/30 01:39:53;;;;;;;169.75;154.05;;;17.70;77.90;;;;;;5043129;28;20045;-77
2022/07/30 01:42:23;;;;;;;169.55;154.05;;;17.70;77.50;;;;;;5043464;28;20053;-77
2022/07/30 01:44:52;;;;;;;168.13;152.73;;;17.60;77.50;;;;;;5060515;28;20542;-77
2022/07/30 01:47:22;;;;;;;172.85;156.85;;;17.60;77.50;;;;;;5048002;28;20132;-78
2022/07/30 01:49:50;;;;;;;171.82;155.82;;;17.50;77.60;;;;;;5050261;28;20067;-78
2022/07/30 01:52:18;;;;;;;199.70;179.70;;;17.50;77.60;;;;;;5051696;28;20066;-78
2022/07/30 01:54:46;;;;;;;195.45;177.95;;;17.50;78.00;;;;;;5048431;28;20053;-78
2022/07/30 01:57:15;;;;;;;186.68;169.85;;;17.40;78.40;;;;;;5035040;28;20084;-78
2022/07/30 01:59:45;;;;;;;198.95;179.98;;;17.40;78.40;;;;;;5059823;28;20635;-78
2022/07/30 02:02:13;;;;;;;209.85;190.20;;;17.30;78.40;;;;;;5035472;28;20053;-78
2022/07/30 02:04:41;;;;;;;202.95;184.52;;;17.30;78.70;;;;;;5050989;28;20541;-78
2022/07/30 02:07:15;;;;;;;173.30;157.32;;;17.30;79.50;;;;;;5039360;28;20049;-77
2022/07/30 02:09:49;;;;;;;175.85;158.60;;;17.20;79.00;;;;;;5047109;28;20108;-78
2022/07/30 02:12:29;;;;;;;171.52;155.38;;;17.20;79.00;;;;;;5055020;28;20084;-77
2022/07/30 02:15:08;;;;;;;177.05;160.70;;;17.10;79.00;;;;;;5039508;28;20041;-78
2022/07/30 02:17:42;;;;;;;193.02;175.13;;;17.00;78.90;;;;;;5053185;28;20103;-77
2022/07/30 02:20:12;;;;;;;216.30;195.68;;;17.00;79.20;;;;;;5066339;28;20537;-77
2022/07/30 02:22:42;;;;;;;185.48;167.98;;;17.00;79.80;;;;;;5050774;28;20045;-77
2022/07/30 02:25:13;;;;;;;200.35;181.23;;;17.00;79.90;;;;;;5034122;28;20038;-77
2022/07/30 02:27:43;;;;;;;191.70;173.52;;;16.90;79.70;;;;;;5033849;28;20050;-78
2022/07/30 02:30:12;;;;;;;189.95;171.95;;;16.90;79.80;;;;;;5033985;28;20450;-77
2022/07/30 02:32:43;;;;;;;182.77;165.25;;;16.90;80.10;;;;;;5034326;28;20132;-78
2022/07/30 02:35:17;;;;;;;305.70;170.13;;;16.90;80.60;;;;;;5050953;28;20037;-78
2022/07/30 02:37:45;;;;;;;180.65;155.20;;;16.90;81.20;;;;;;5053367;28;20594;-77
2022/07/30 02:40:16;;;;;;;156.82;142.65;;;16.80;81.10;;;;;;5054096;28;20137;-77
2022/07/30 02:42:45;;;;;;;162.40;147.50;;;16.80;81.10;;;;;;5070648;28;20053;-78
2022/07/30 02:45:17;;;;;;;210.18;190.43;;;16.70;81.50;;;;;;5057668;28;20045;-78
2022/07/30 02:47:48;;;;;;;164.75;149.35;;;16.70;82.80;;;;;;5045206;28;20149;-77
2022/07/30 02:50:18;;;;;;;162.55;147.45;;;16.60;85.00;;;;;;5069587;28;20139;-77
2022/07/30 02:52:45;;;;;;;166.38;150.68;;;16.50;86.00;;;;;;5055763;28;20089;-77
2022/07/30 02:55:13;;;;;;;207.38;187.48;;;16.50;88.20;;;;;;5045342;28;20073;-77
2022/07/30 02:57:42;;;;;;;201.82;182.20;;;16.30;90.00;;;;;;5061522;28;20156;-77
2022/07/30 03:00:11;;;;;;;203.60;184.00;;;16.20;90.40;;;;;;5062386;28;20045;-78
2022/07/30 03:02:39;;;;;;;196.85;177.90;;;16.10;90.50;;;;;;5059348;28;20505;-77
2022/07/30 03:05:09;;;;;;;170.50;153.68;;;16.20;90.70;;;;;;5066319;28;20586;-78
2022/07/30 03:07:38;;;;;;;161.18;145.98;;;16.10;90.70;;;;;;5043886;28;20053;-78
2022/07/30 03:10:06;;;;;;;158.98;144.35;;;16.20;90.50;;;;;;5044488;28;20049;-77
2022/07/30 03:12:34;;;;;;;153.70;139.40;;;16.10;90.50;;;;;;5042607;28;20512;-77
2022/07/30 03:15:02;;;;;;;147.20;134.32;;;16.20;90.60;;;;;;5041378;28;20048;-77
2022/07/30 03:17:34;;;;;;;158.52;143.93;;;16.20;90.80;;;;;;5073418;28;20067;-77
2022/07/30 03:20:04;;;;;;;195.35;176.63;;;16.20;91.20;;;;;;5063733;28;20040;-78
2022/07/30 03:22:35;;;;;;;255.02;230.02;;;16.10;91.30;;;;;;5069989;28;20064;-78
2022/07/30 03:25:03;;;;;;;232.38;209.50;;;16.10;92.00;;;;;;5057972;28;20479;-78
2022/07/30 03:27:31;;;;;;;247.40;222.85;;;16.00;92.40;;;;;;5049807;28;20554;-78
2022/07/30 03:30:02;;;;;;;224.27;202.35;;;16.00;92.40;;;;;;5076364;28;20132;-78
2022/07/30 03:32:31;;;;;;;217.95;196.52;;;16.00;92.50;;;;;;5060359;28;20060;-78
2022/07/30 03:34:59;;;;;;;223.75;201.35;;;16.00;92.40;;;;;;5051342;28;20131;-78
2022/07/30 03:37:27;;;;;;;200.05;180.38;;;16.00;92.30;;;;;;5055275;28;20045;-78
2022/07/30 03:39:58;;;;;;;214.60;193.25;;;16.00;92.40;;;;;;5074085;28;20461;-78
2022/07/30 03:42:28;;;;;;;225.00;202.93;;;16.00;92.30;;;;;;5056048;28;20057;-77
2022/07/30 03:44:56;;;;;;;230.00;207.23;;;16.10;92.10;;;;;;5065040;28;20053;-78
2022/07/30 03:47:24;;;;;;;209.88;188.27;;;16.10;91.80;;;;;;5044748;28;20049;-78
2022/07/30 03:49:52;;;;;;;217.20;195.85;;;16.10;91.80;;;;;;5045333;28;20053;-78
2022/07/30 03:52:20;;;;;;;223.13;201.23;;;16.10;91.60;;;;;;5050731;28;20060;-78
2022/07/30 03:54:47;;;;;;;217.27;194.50;;;16.10;91.40;;;;;;5055560;28;20081;-77
2022/07/30 03:57:38;;;;;;;215.90;193.38;;;16.10;91.40;;;;;;5043307;28;20052;-78
2022/07/30 04:00:07;;;;;;;219.90;196.70;;;16.10;91.40;;;;;;5062890;28;20080;-78
2022/07/30 04:02:43;;;;;;;227.40;203.73;;;16.10;91.60;;;;;;5063760;28;20056;-78
2022/07/30 04:05:19;;;;;;;227.50;203.85;;;16.10;91.70;;;;;;5067089;28;20539;-78
2022/07/30 04:07:49;;;;;;;220.43;197.75;;;16.00;91.80;;;;;;5044952;28;20042;-78
2022/07/30 04:10:19;;;;;;;235.90;211.82;;;16.00;91.90;;;;;;5051767;28;20059;-78
2022/07/30 04:13:00;;;;;;;248.40;222.13;;;16.00;92.00;;;;;;5082974;28;20079;-78
2022/07/30 04:15:29;;;;;;;242.57;217.18;;;15.90;92.40;;;;;;5048697;28;20995;-78
2022/07/30 04:18:01;;;;;;;235.45;208.30;;;15.80;92.70;;;;;;5058551;28;20479;-77
2022/07/30 04:20:34;;;;;;;246.60;220.35;;;15.70;93.40;;;;;;5041251;28;20057;-78
2022/07/30 04:23:02;;;;;;;246.02;218.35;;;15.60;94.10;;;;;;5051648;28;20049;-78
2022/07/30 04:25:30;;;;;;;234.95;210.05;;;15.50;94.40;;;;;;5071725;28;20472;-78
2022/07/30 04:27:57;;;;;;;231.30;207.00;;;15.40;94.90;;;;;;5071319;28;20494;-78
2022/07/30 04:30:26;;;;;;;217.23;194.30;;;15.50;94.90;;;;;;5053632;28;20084;-78
2022/07/30 04:32:53;;;;;;;214.10;191.60;;;15.50;95.20;;;;;;5064348;28;20123;-78
2022/07/30 04:35:49;;;;;;;215.15;192.43;;;15.50;95.60;;;;;;5060807;28;20517;-78
2022/07/30 04:38:18;;;;;;;220.25;197.00;;;15.50;95.50;;;;;;5054640;28;20453;-79
2022/07/30 04:40:49;;;;;;;220.93;197.27;;;15.50;95.60;;;;;;5076917;28;20052;-78
2022/07/30 04:43:16;;;;;;;225.77;202.07;;;15.50;95.70;;;;;;5058965;28;20129;-78
2022/07/30 04:45:45;;;;;;;223.95;199.95;;;15.60;95.90;;;;;;5054505;28;20099;-78
2022/07/30 04:48:12;;;;;;;229.82;205.63;;;15.60;96.00;;;;;;5050248;28;20171;-78
2022/07/30 04:50:44;;;;;;;232.90;207.98;;;15.60;96.20;;;;;;5063040;28;20049;-78
2022/07/30 04:53:14;;;;;;;243.77;216.38;;;15.60;96.50;;;;;;5057957;28;20057;-78
2022/07/30 04:55:48;;;;;;;216.25;193.45;;;15.50;96.60;;;;;;5047510;28;20128;-78
2022/07/30 04:58:20;;;;;;;230.70;205.55;;;15.50;96.80;;;;;;5053064;28;20508;-78
2022/07/30 05:00:50;;;;;;;246.60;220.23;;;15.40;96.90;;;;;;5043368;28;20042;-78
2022/07/30 05:03:23;;;;;;;217.23;193.25;;;15.40;97.10;;;;;;5039961;28;20913;-78
2022/07/30 05:05:52;;;;;;;233.65;209.05;;;15.40;97.40;;;;;;5063213;28;20466;-78
2022/07/30 05:08:19;;;;;;;248.43;218.95;;;15.40;97.40;;;;;;5043825;28;20140;-78
2022/07/30 05:10:46;;;;;;;229.20;204.82;;;15.50;97.30;;;;;;5052541;28;20063;-78
2022/07/30 05:13:14;;;;;;;220.30;196.38;;;15.50;97.40;;;;;;5048158;28;20056;-78
2022/07/30 05:15:44;;;;;;;222.25;198.60;;;15.50;97.40;;;;;;5052716;28;20136;-79
2022/07/30 05:18:13;;;;;;;230.52;206.20;;;15.60;97.60;;;;;;5060345;28;20405;-78
2022/07/30 05:20:43;;;;;;;244.77;217.32;;;15.60;97.70;;;;;;5044922;28;20424;-78
2022/07/30 05:23:33;;;;;;;217.18;193.95;;;15.70;98.00;;;;;;5062226;28;20057;-78
2022/07/30 05:26:20;;;;;;;220.55;192.50;;;15.70;98.30;;;;;;5063435;28;20056;-79
2022/07/30 05:28:49;;;;;;;230.20;205.23;;;15.70;98.50;;;;;;5073365;28;20044;-78
2022/07/30 05:31:19;;;;;;;222.90;191.88;;;15.70;98.50;;;;;;5063105;28;20162;-78
2022/07/30 05:33:55;;;;;;;230.35;205.18;;;15.70;98.90;;;;;;5061161;28;20045;-79
2022/07/30 05:36:25;;;;;;;224.32;198.98;;;15.70;98.60;;;;;;5064671;28;20053;-79
2022/07/30 05:38:54;;;;;;;223.07;198.50;;;15.70;98.60;;;;;;5051775;28;20049;-79
2022/07/30 05:41:33;;;;;;;222.02;187.35;;;15.70;99.20;;;;;;5052715;28;20057;-79
2022/07/30 05:44:08;;;;;;;225.48;192.27;;;15.70;99.00;;;;;;5044976;28;20449;-78
2022/07/30 05:46:35;;;;;;;240.63;191.88;;;15.80;98.80;;;;;;5042113;28;20100;-79
2022/07/30 05:49:05;;;;;;;227.90;194.50;;;15.80;99.20;;;;;;5047408;28;20049;-78
2022/07/30 05:51:32;;;;;;;220.88;196.75;;;15.80;99.00;;;;;;5054946;28;20128;-79
2022/07/30 05:53:59;;;;;;;222.55;197.70;;;15.90;99.50;;;;;;5040528;28;20049;-79
2022/07/30 05:56:51;;;;;;;227.57;197.52;;;15.90;99.50;;;;;;5037689;28;20084;-78
2022/07/30 05:59:29;;;;;;;218.48;195.73;;;16.00;99.50;;;;;;5056698;28;20077;-77
2022/07/30 06:02:19;;;;;;;220.70;197.30;;;16.00;99.50;;;;;;5057546;28;20521;-80
2022/07/30 06:04:50;;;;;;;216.65;193.73;;;16.10;99.70;;;;;;5051538;28;20049;-80
2022/07/30 06:07:17;;;;;;;226.27;202.52;;;16.10;99.50;;;;;;5057554;28;20136;-78
2022/07/30 06:09:44;;;;;;;209.23;187.52;;;16.10;99.60;;;;;;5041428;28;20140;-80
2022/07/30 06:12:11;;;;;;;219.63;197.07;;;16.20;99.90;;;;;;5042314;28;20050;-80
2022/07/30 06:14:40;;;;;;;208.90;187.32;;;16.30;99.90;;;;;;5036895;28;20091;-77
2022/07/30 06:17:10;;;;;;;215.20;193.20;;;16.30;99.90;;;;;;5032499;28;20136;-79
2022/07/30 06:20:01;;;;;;;218.05;195.98;;;16.40;99.90;;;;;;5052952;28;20053;-78
2022/07/30 06:22:33;;;;;;;224.40;201.80;;;16.40;99.90;;;;;;5046845;28;20045;-78
2022/07/30 06:25:07;;;;;;;213.77;192.13;;;16.50;99.90;;;;;;5062507;28;20478;-80
2022/07/30 06:27:35;;;;;;;231.57;207.88;;;16.60;99.90;;;;;;5049202;28;20049;-79
2022/07/30 06:30:03;;;;;;;227.48;204.52;;;16.60;99.90;;;;;;5037938;28;20056;-79
2022/07/30 06:32:30;;;;;;;226.65;203.07;;;16.70;99.90;;;;;;5045488;28;20130;-79
2022/07/30 06:34:57;;;;;;;224.45;202.35;;;16.80;99.90;;;;;;5040934;28;20076;-79
2022/07/30 06:37:25;;;;;;;218.65;196.15;;;16.80;99.90;;;;;;5051046;28;20049;-80
2022/07/30 06:39:53;;;;;;;221.70;199.10;;;16.90;99.90;;;;;;5041048;28;20053;-81
2022/07/30 06:42:20;;;;;;;233.55;209.90;;;16.90;99.90;;;;;;5058991;28;20045;-80
2022/07/30 06:45:06;;;;;;;;;;;17.00;99.90;;;;;;5060461;28;20129;-80
2022/07/30 06:47:52;;;;;;;209.82;187.65;;;17.00;99.90;;;;;;5056854;28;20022;-81
2022/07/30 06:50:19;;;;;;;220.95;198.45;;;17.10;99.90;;;;;;5045902;28;20049;-80
2022/07/30 06:52:47;;;;;;;231.32;207.82;;;17.10;99.90;;;;;;5046403;28;20065;-80
2022/07/30 06:55:14;;;;;;;233.18;209.80;;;17.20;99.90;;;;;;5061745;28;20053;-80
2022/07/30 06:57:47;;;;;;;229.45;206.45;;;17.20;99.90;;;;;;5039400;28;20057;-81
2022/07/30 07:00:34;;;;;;;232.65;209.27;;;17.30;99.90;;;;;;5055777;28;20049;-79
2022/07/30 07:03:06;;;;;;;221.13;199.05;;;17.30;99.90;;;;;;5056891;28;20049;-79
2022/07/30 07:05:36;;;;;;;231.45;208.73;;;17.40;99.90;;;;;;5054980;28;20041;-79
2022/07/30 07:08:05;;;;;;;219.77;197.45;;;17.50;99.90;;;;;;5060112;28;20536;-78
2022/07/30 07:10:37;;;;;;;226.48;203.55;;;17.50;99.90;;;;;;5063860;28;20574;-81
2022/07/30 07:13:15;;;;;;;220.45;198.13;;;17.60;99.90;;;;;;5044510;28;20483;-79
2022/07/30 07:15:42;;;;;;;228.98;205.68;;;17.60;99.90;;;;;;5044354;28;20492;-81
2022/07/30 07:18:14;;;;;;;236.25;212.57;;;17.70;99.90;;;;;;5039613;28;20499;-79
2022/07/30 07:20:47;;;;;;;244.90;220.88;;;17.70;99.90;;;;;;5045083;28;20515;-82
2022/07/30 07:23:15;;;;;;;228.98;205.68;;;17.80;99.90;;;;;;5039125;28;20582;-83
2022/07/30 07:25:43;;;;;;;221.10;198.60;;;17.80;99.90;;;;;;5054285;28;20049;-81
2022/07/30 07:28:10;;;;;;;228.80;206.50;;;17.90;99.90;;;;;;5046979;28;20041;-83
2022/07/30 07:30:37;;;;;;;236.18;213.00;;;17.90;99.90;;;;;;5047736;28;20049;-80
2022/07/30 07:33:06;;;;;;;231.73;209.00;;;17.90;99.90;;;;;;5062074;28;20053;-80
2022/07/30 07:35:33;;;;;;;228.18;205.57;;;17.90;99.90;;;;;;5063202;28;20057;-82
2022/07/30 07:38:01;;;;;;;219.82;198.18;;;18.00;99.90;;;;;;5057249;28;20055;-82
2022/07/30 07:40:29;;;;;;;208.85;187.98;;;18.10;99.90;;;;;;5042716;28;20153;-80
2022/07/30 07:42:57;;;;;;;218.13;195.95;;;18.10;99.90;;;;;;5046925;28;20137;-83
2022/07/30 07:45:24;;;;;;;212.10;191.15;;;18.10;99.90;;;;;;5053856;28;20132;-82
2022/07/30 07:47:57;;;;;;;220.43;198.13;;;18.20;99.90;;;;;;5044051;28;20049;-80
2022/07/30 07:50:47;;;;;;;208.23;187.63;;;18.20;99.80;;;;;;5037083;28;20049;-82
2022/07/30 07:53:25;;;;;;;209.38;188.43;;;18.20;99.90;;;;;;5046188;28;20049;-83
2022/07/30 07:55:54;;;;;;;211.88;190.73;;;18.30;99.90;;;;;;5046663;28;20099;-83
2022/07/30 07:58:23;;;;;;;209.48;189.25;;;18.30;99.90;;;;;;5060437;28;20041;-82
2022/07/30 08:00:50;;;;;;;217.55;195.82;;;18.30;99.70;;;;;;5053124;28;20132;-81
2022/07/30 08:03:19;;;;;;;205.98;185.23;;;18.40;99.70;;;;;;5052916;28;20056;-81
2022/07/30 08:05:46;;;;;;;212.27;191.18;;;18.40;99.60;;;;;;5047752;28;20048;-79
2022/07/30 08:08:25;;;;;;;207.35;186.50;;;18.50;99.60;;;;;;5049267;28;20072;-83
2022/07/30 08:11:12;;;;;;;214.57;193.80;;;18.50;99.40;;;;;;5056262;28;20075;-82
2022/07/30 08:13:58;;;;;;;218.18;196.70;;;18.60;99.20;;;;;;5071196;28;20163;-82
2022/07/30 08:16:44;;;;;;;215.48;193.82;;;18.70;99.10;;;;;;5075706;28;20647;-82
2022/07/30 08:19:22;;;;;;;223.63;201.50;;;18.70;98.90;;;;;;5051613;28;20049;-80
2022/07/30 08:21:58;;;;;;;221.65;199.82;;;18.80;98.90;;;;;;5051511;28;20115;-84
2022/07/30 08:24:29;;;;;;;217.18;195.32;;;18.80;98.70;;;;;;5046905;28;20049;-83
2022/07/30 08:26:58;;;;;;;208.93;188.35;;;18.90;98.70;;;;;;5046751;28;20104;-83
2022/07/30 08:29:25;;;;;;;214.52;193.75;;;19.00;98.60;;;;;;5039090;28;20103;-83
2022/07/30 08:31:52;;;;;;;220.63;199.65;;;19.00;98.20;;;;;;5038783;28;20053;-81
2022/07/30 08:34:19;;;;;;;216.15;195.65;;;19.00;97.90;;;;;;5055479;28;20127;-82
2022/07/30 08:36:46;;;;;;;215.55;195.10;;;19.10;98.20;;;;;;5043692;28;20419;-82
2022/07/30 08:39:15;;;;;;;225.32;204.07;;;19.10;98.10;;;;;;5058563;28;20049;-81
2022/07/30 08:41:42;;;;;;;210.32;189.40;;;19.20;97.90;;;;;;5048370;28;20424;-82
2022/07/30 08:44:12;;;;;;;217.05;195.60;;;19.30;98.10;;;;;;5057705;28;20076;-81
2022/07/30 08:46:42;;;;;;;231.27;209.18;;;19.30;97.60;;;;;;5047861;28;20796;-81
2022/07/30 08:49:25;;;;;;;218.50;197.43;;;19.40;97.00;;;;;;5043953;28;20061;-82
2022/07/30 08:51:52;;;;;;;223.02;201.88;;;19.40;96.50;;;;;;5053001;28;20060;-81
2022/07/30 08:54:40;;;;;;;230.75;209.13;;;19.40;96.50;;;;;;5041496;28;20057;-81
2022/07/30 08:57:07;;;;;;;235.23;213.32;;;19.40;96.60;;;;;;5046819;28;20119;-81
2022/07/30 08:59:38;;;;;;;239.57;217.95;;;19.50;96.80;;;;;;5036190;28;20049;-81
2022/07/30 09:02:05;;;;;;;246.05;223.77;;;19.60;96.80;;;;;;5049629;28;20537;-82
2022/07/30 09:04:37;;;;;;;217.95;198.38;;;19.70;96.80;;;;;;5043896;28;20055;-82
2022/07/30 09:07:03;;;;;;;239.18;217.10;;;19.70;96.70;;;;;;5039433;28;20057;-78
2022/07/30 09:09:30;;;;;;;229.20;208.45;;;19.80;96.70;;;;;;5038889;28;20138;-81
2022/07/30 09:11:57;;;;;;;233.48;212.63;;;19.90;96.30;;;;;;5046509;28;20115;-81
2022/07/30 09:14:25;;;;;;;221.93;201.55;;;19.90;96.30;;;;;;5045725;28;20562;-82
2022/07/30 09:16:57;;;;;;;211.77;191.65;;;20.00;96.20;;;;;;5033144;28;20140;-83
2022/07/30 09:19:25;;;;;;;215.25;194.85;;;20.00;95.90;;;;;;5038096;28;20644;-82
2022/07/30 09:21:57;;;;;;;213.38;194.15;;;20.00;95.90;;;;;;5041334;28;20131;-83
2022/07/30 09:24:43;;;;;;;208.60;189.02;;;20.10;95.70;;;;;;5053157;28;20056;-80
2022/07/30 09:27:44;;;;;;;210.68;191.48;;;20.20;95.70;;;;;;5058770;28;20172;-79
2022/07/30 09:30:47;;;;;;;197.38;178.32;;;20.30;95.60;;;;;;5065289;28;20385;-81
2022/07/30 09:33:36;;;;;;;203.10;184.02;;;20.30;95.20;;;;;;5071474;28;20104;-78
2022/07/30 09:36:32;;;;;;;211.25;191.95;;;20.40;94.60;;;;;;5019825;28;20056;-80
2022/07/30 09:39:28;;;;;;;205.48;186.18;;;20.40;94.50;;;;;;5056642;28;20053;-80
2022/07/30 09:42:19;;;;;;;198.95;179.93;;;20.40;94.60;;;;;;5065319;28;20057;-80
2022/07/30 09:44:47;;;;;;;204.95;186.15;;;20.50;94.70;;;;;;5044830;28;20059;-80
2022/07/30 09:47:29;;;;;;;214.90;195.73;;;20.50;94.60;;;;;;5050021;28;20045;-80
2022/07/30 09:50:05;;;;;;;208.05;189.48;;;20.60;94.30;;;;;;5040671;28;20157;-77
2022/07/30 09:52:32;;;;;;;211.90;193.10;;;20.60;94.80;;;;;;5056041;28;20061;-80
2022/07/30 09:54:59;;;;;;;214.35;195.70;;;20.60;94.80;;;;;;5040573;28;20050;-80
2022/07/30 09:57:28;;;;;;;212.75;193.80;;;20.60;94.60;;;;;;5068294;28;20139;-84
2022/07/30 10:00:20;;;;;;;208.18;189.75;;;20.70;92.80;;;;;;5059389;28;20053;-83
2022/07/30 10:02:53;;;;;;;203.45;184.73;;;20.70;92.50;;;;;;5044695;28;20490;-80
2022/07/30 10:05:58;;;;;;;213.57;194.80;;;20.80;92.80;;;;;;5015620;28;20053;-81
2022/07/30 10:08:39;;;;;;;216.60;197.75;;;20.80;92.80;;;;;;5044141;28;20063;-82
2022/07/30 10:11:10;;;;;;;219.93;200.63;;;20.90;92.90;;;;;;5053927;28;20114;-81
2022/07/30 10:13:38;;;;;;;218.05;199.23;;;21.00;92.80;;;;;;5048882;28;20103;-81
2022/07/30 10:16:06;;;;;;;221.23;202.48;;;21.00;92.40;;;;;;5055002;28;20049;-81
2022/07/30 10:18:35;;;;;;;218.10;199.82;;;21.10;92.20;;;;;;5055416;28;20098;-80
2022/07/30 10:21:22;;;;;;;213.57;195.18;;;21.20;91.80;;;;;;5070667;28;20052;-79
2022/07/30 10:24:08;;;;;;;217.32;199.27;;;21.20;91.70;;;;;;5058713;28;20405;-76
2022/07/30 10:27:05;;;;;;;219.48;200.65;;;21.30;92.30;;;;;;5059359;28;20075;-81
2022/07/30 10:29:49;;;;;;;214.23;196.10;;;21.40;91.80;;;;;;5052031;28;20099;-80
2022/07/30 10:32:17;;;;;;;209.77;191.98;;;21.40;90.90;;;;;;5066642;28;20088;-81
2022/07/30 10:34:44;;;;;;;221.25;203.07;;;21.50;90.20;;;;;;5055157;28;20539;-79
2022/07/30 10:37:15;;;;;;;214.27;196.50;;;21.50;90.20;;;;;;5070235;28;20053;-78
2022/07/30 10:39:50;;;;;;;218.52;200.45;;;21.50;90.00;;;;;;5055874;28;20129;-78
2022/07/30 10:42:33;;;;;;;215.82;197.77;;;21.60;89.60;;;;;;5046697;28;20181;-79
2022/07/30 10:45:16;;;;;;;212.40;194.70;;;21.60;89.40;;;;;;5062461;28;20052;-79
2022/07/30 10:47:44;;;;;;;209.73;192.02;;;21.60;88.30;;;;;;5059270;28;20049;-78
2022/07/30 10:50:13;;;;;;;204.18;186.57;;;21.70;89.40;;;;;;5068672;28;20783;-78
2022/07/30 10:52:50;;;;;;;202.05;184.30;;;21.80;88.80;;;;;;5061973;28;20053;-78
2022/07/30 10:55:19;;;;;;;203.07;185.23;;;21.80;88.20;;;;;;5062127;28;20068;-78
2022/07/30 10:58:04;;;;;;;219.75;199.70;;;21.90;89.90;;;;;;5061228;28;20131;-78
2022/07/30 11:00:33;;;;;;;215.75;197.90;;;21.90;88.80;;;;;;5048517;28;20045;-78
2022/07/30 11:03:15;;;;;;;217.90;199.82;;;21.90;89.00;;;;;;5063452;28;20057;-78
2022/07/30 11:05:44;;;;;;;214.73;196.77;;;22.00;85.70;;;;;;5061478;28;20042;-79
2022/07/30 11:08:31;;;;;;;218.93;200.63;;;22.00;86.40;;;;;;5064622;28;20049;-80
2022/07/30 11:10:58;;;;;;;199.27;181.73;;;22.10;84.30;;;;;;5074359;28;20144;-79
2022/07/30 11:13:48;;;;;;;201.77;183.88;;;22.10;82.80;;;;;;5065114;28;20061;-80
2022/07/30 11:16:16;;;;;;;219.35;201.32;;;22.10;83.10;;;;;;5058922;28;20076;-79
2022/07/30 11:19:16;;;;;;;207.00;189.50;;;22.10;84.20;;;;;;5072595;28;20052;-79
2022/07/30 11:21:46;;;;;;;219.38;202.10;;;22.20;82.90;;;;;;5060143;28;20103;-80
2022/07/30 11:24:45;;;;;;;210.95;193.40;;;22.10;82.80;;;;;;5065597;28;20052;-81
2022/07/30 11:27:34;;;;;;;209.07;191.98;;;22.20;82.80;;;;;;5056454;28;20141;-72
2022/07/30 11:30:02;;;;;;;204.07;186.85;;;22.30;83.90;;;;;;5055656;28;20053;-74
2022/07/30 11:32:31;;;;;;;205.02;188.05;;;22.30;84.20;;;;;;5054378;28;20058;-73
2022/07/30 11:35:16;;;;;;;199.07;181.27;;;22.40;83.40;;;;;;5070163;28;20049;-73
2022/07/30 11:38:02;;;;;;;203.20;185.77;;;22.40;81.50;;;;;;5061389;28;20056;-71
2022/07/30 11:40:32;;;;;;;185.48;168.95;;;22.40;82.00;;;;;;5061950;28;20553;-74
2022/07/30 11:43:23;;;;;;;189.13;172.63;;;22.40;80.80;;;;;;5057212;28;20135;-75
2022/07/30 11:45:52;;;;;;;201.02;184.02;;;22.40;80.90;;;;;;5064717;28;20060;-75
2022/07/30 11:48:21;;;;;;;211.10;194.25;;;22.40;79.10;;;;;;5059906;28;20053;-79
2022/07/30 11:50:48;;;;;;;215.45;198.02;;;22.40;78.30;;;;;;5050331;28;20049;-77
2022/07/30 11:53:18;;;;;;;195.98;179.40;;;22.40;78.80;;;;;;5064525;28;20486;-77
2022/07/30 11:55:51;;;;;;;207.82;190.63;;;22.40;78.50;;;;;;5055176;28;20052;-76
2022/07/30 11:58:27;;;;;;;227.90;209.50;;;22.40;77.30;;;;;;5067837;28;20057;-72
2022/07/30 12:00:56;;;;;;;213.27;195.88;;;22.40;80.70;;;;;;5051234;28;20061;-74
2022/07/30 12:03:26;;;;;;;213.93;196.30;;;22.50;79.60;;;;;;5056603;28;20057;-74
2022/07/30 12:05:53;;;;;;;227.10;208.85;;;22.50;77.60;;;;;;4998015;28;20545;-74
2022/07/30 12:08:20;;;;;;;219.75;201.73;;;22.50;78.30;;;;;;5009734;28;20626;-73
2022/07/30 12:10:58;;;;;;;209.23;191.90;;;22.60;79.10;;;;;;5074988;28;20057;-73
2022/07/30 12:13:26;;;;;;;206.77;189.93;;;22.70;75.80;;;;;;5084281;28;20046;-79
2022/07/30 12:15:53;;;;;;;207.95;191.02;;;22.70;76.40;;;;;;5063490;28;20140;-80
2022/07/30 12:18:27;;;;;;;185.55;170.43;;;22.70;75.90;;;;;;5072361;28;20056;-79
2022/07/30 12:20:59;;;;;;;199.77;183.82;;;22.70;77.10;;;;;;5089263;28;20514;-73
2022/07/30 12:23:26;;;;;;;201.05;185.02;;;22.80;74.40;;;;;;5073390;28;20238;-74
2022/07/30 12:25:53;;;;;;;223.25;205.35;;;22.80;75.50;;;;;;5079401;28;20578;-74
2022/07/30 12:28:23;;;;;;;220.57;203.02;;;22.80;75.90;;;;;;5060633;28;20187;-74
2022/07/30 12:30:51;;;;;;;218.55;201.07;;;22.90;74.40;;;;;;5086876;28;20044;-75
2022/07/30 12:33:18;;;;;;;224.65;206.50;;;22.90;73.60;;;;;;5086258;28;20052;-77